Time;durP1;ratioP1;P1;durP2;ratioP2;P2;SDS_P1;SDS_P2;PMS_P1;PMS_P2;Temp;Humidity;BMP_temperature;BMP_pressure;BME280_temperature;BME280_humidity;BME280_pressure;Samples;Min_cycle;Max_cycle;Signal;HPM_P1;HPM_P2
2023/03/03 00:01:09;;;;;;;38.15;21.48;;;0.90;99.90;;;-0.06;100.00;97424.72;4949537;28;20035;-38
2023/03/03 00:03:35;;;;;;;44.53;21.70;;;0.90;99.90;;;-0.07;100.00;97430.78;4945123;28;20543;-38
2023/03/03 00:06:03;;;;;;;42.10;21.52;;;0.80;99.90;;;-0.13;100.00;97422.06;4947737;28;20070;-38
2023/03/03 00:08:31;;;;;;;37.88;21.60;;;0.80;99.90;;;-0.18;100.00;97427.22;4951710;28;20105;-38
2023/03/03 00:10:59;;;;;;;42.78;23.45;;;0.70;99.90;;;-0.34;100.00;97412.44;4956789;28;20038;-37
2023/03/03 00:13:26;;;;;;;40.83;22.30;;;0.70;99.90;;;-0.49;100.00;97382.13;4949742;28;20085;-38
2023/03/03 00:15:53;;;;;;;41.22;22.13;;;0.60;99.90;;;-0.29;100.00;97421.97;4946378;28;20047;-38
2023/03/03 00:18:27;;;;;;;43.05;22.85;;;0.60;99.90;;;-0.25;100.00;97428.03;4949086;28;20295;-37
2023/03/03 00:20:57;;;;;;;48.45;24.20;;;0.60;99.90;;;-0.28;100.00;97426.31;4958259;28;20073;-38
2023/03/03 00:23:37;;;;;;;41.55;22.85;;;0.60;99.90;;;-0.29;100.00;97434.94;4948728;28;20089;-37
2023/03/03 00:26:27;;;;;;;46.97;23.17;;;0.60;99.90;;;-0.32;100.00;97434.03;4948245;28;20041;-37
2023/03/03 00:28:54;;;;;;;41.83;22.58;;;0.60;99.90;;;-0.37;100.00;97431.44;4946689;28;20026;-38
2023/03/03 00:31:34;;;;;;;45.58;22.85;;;0.50;99.90;;;-0.40;100.00;97426.22;4948384;28;20030;-37
2023/03/03 00:34:25;;;;;;;49.15;22.98;;;0.50;99.90;;;-0.37;100.00;97426.25;4952029;28;20578;-37
2023/03/03 00:36:54;;;;;;;50.40;25.55;;;0.50;99.90;;;-0.28;100.00;97418.53;4940913;28;20055;-38
2023/03/03 00:39:37;;;;;;;46.65;24.17;;;0.60;99.90;;;-0.25;100.00;97430.63;4942749;28;20034;-38
2023/03/03 00:42:16;;;;;;;45.85;23.48;;;0.60;99.90;;;-0.27;100.00;97429.75;4948843;28;20478;-37
2023/03/03 00:44:44;;;;;;;49.00;25.75;;;0.60;99.90;;;-0.29;100.00;97427.16;4946751;28;20557;-38
2023/03/03 00:47:27;;;;;;;58.58;27.02;;;0.60;99.90;;;-0.35;100.00;97416.78;4951865;28;20038;-38
2023/03/03 00:50:14;;;;;;;46.13;24.33;;;0.70;99.90;;;-0.37;100.00;97420.22;4945707;28;20478;-37
2023/03/03 00:52:46;;;;;;;45.63;24.02;;;0.60;99.90;;;-0.45;100.00;97402.00;4947052;28;20450;-37
2023/03/03 00:55:12;;;;;;;48.65;22.65;;;0.60;99.90;;;-0.51;100.00;97404.56;4942834;28;20057;-37
2023/03/03 00:57:38;;;;;;;51.22;25.48;;;0.50;99.90;;;-0.47;100.00;97414.94;4948507;28;20034;-38
2023/03/03 01:00:04;;;;;;;61.05;28.33;;;0.50;99.90;;;-0.52;100.00;97405.41;4945366;28;20121;-37
2023/03/03 01:02:30;;;;;;;53.25;27.60;;;0.50;99.90;;;-0.49;100.00;97413.22;4947750;28;20045;-37
2023/03/03 01:04:55;;;;;;;52.72;26.30;;;0.40;99.90;;;-0.47;100.00;97408.91;4944251;28;20770;-38
2023/03/03 01:07:21;;;;;;;53.65;26.88;;;0.50;99.90;;;-0.47;100.00;97417.53;4948421;28;20459;-38
2023/03/03 01:09:47;;;;;;;47.40;26.38;;;0.50;99.90;;;-0.49;100.00;97414.06;4944218;28;20035;-38
2023/03/03 01:12:13;;;;;;;54.30;27.02;;;0.50;99.90;;;-0.49;100.00;97416.66;4946937;28;20479;-38
2023/03/03 01:14:39;;;;;;;51.20;25.90;;;0.50;99.90;;;-0.50;100.00;97401.09;4944451;28;20037;-38
2023/03/03 01:17:05;;;;;;;57.78;26.75;;;0.50;99.90;;;-0.54;100.00;97404.53;4951563;28;20062;-38
2023/03/03 01:19:31;;;;;;;53.20;27.40;;;0.50;99.90;;;-0.55;100.00;97405.41;4946342;28;20784;-38
2023/03/03 01:21:57;;;;;;;57.28;26.70;;;0.40;99.90;;;-0.57;100.00;97405.41;4942367;28;20356;-37
2023/03/03 01:24:23;;;;;;;51.70;26.40;;;0.40;99.90;;;-0.55;100.00;97413.19;4945014;28;20086;-38
2023/03/03 01:26:49;;;;;;;65.95;28.92;;;0.40;99.90;;;-0.60;100.00;97405.38;4974871;23;20058;-39
2023/03/03 01:29:14;;;;;;;53.47;27.00;;;0.40;99.90;;;-0.63;100.00;97406.22;4972120;28;20190;-39
2023/03/03 01:31:40;;;;;;;51.97;25.63;;;0.40;99.90;;;-0.63;100.00;97415.69;4964522;28;20058;-39
2023/03/03 01:34:06;;;;;;;46.40;25.00;;;0.40;99.90;;;-0.65;100.00;97412.22;4967718;28;20076;-38
2023/03/03 01:36:32;;;;;;;50.15;24.95;;;0.30;99.90;;;-0.65;100.00;97420.00;4963750;28;20117;-39
2023/03/03 01:38:59;;;;;;;59.08;27.65;;;0.30;99.90;;;-0.74;100.00;97420.78;4964474;28;20134;-39
2023/03/03 01:41:31;;;;;;;55.08;27.77;;;0.30;99.90;;;-0.77;100.00;97407.84;4961474;28;20479;-39
2023/03/03 01:43:57;;;;;;;50.17;25.58;;;0.20;99.90;;;-0.75;100.00;97416.50;4964368;28;20751;-38
2023/03/03 01:46:56;;;;;;;51.03;26.23;;;0.30;99.90;;;-0.72;100.00;97406.13;4970586;28;20061;-39
2023/03/03 01:49:56;;;;;;;54.60;25.73;;;0.20;99.90;;;-0.78;100.00;97409.53;4969844;28;20652;-39
2023/03/03 01:52:43;;;;;;;59.67;28.13;;;0.20;99.90;;;-0.80;100.00;97395.72;4970889;28;20041;-39
2023/03/03 01:55:21;;;;;;;59.55;27.23;;;0.30;99.90;;;-0.75;100.00;97408.72;4981451;28;21298;-39
2023/03/03 01:57:55;;;;;;;54.75;26.27;;;0.20;99.90;;;-1.03;100.00;97361.03;4960629;28;20022;-39
2023/03/03 02:00:21;;;;;;;58.42;28.58;;;0.30;99.90;;;-0.79;100.00;97396.59;4977623;28;20544;-39
2023/03/03 02:02:48;;;;;;;55.53;28.42;;;0.20;99.90;;;-0.78;100.00;97399.19;4961674;28;20034;-39
2023/03/03 02:05:15;;;;;;;57.63;26.55;;;0.20;99.90;;;-0.80;100.00;97387.09;4972513;28;20453;-39
2023/03/03 02:07:41;;;;;;;58.22;26.75;;;0.20;99.90;;;-0.75;100.00;97395.78;4983949;28;20101;-39
2023/03/03 02:10:11;;;;;;;55.53;26.95;;;0.20;99.90;;;-0.79;100.00;97381.94;4971426;28;20091;-39
2023/03/03 02:12:57;;;;;;;53.55;26.90;;;0.20;99.90;;;-0.72;100.00;97387.16;4970671;28;20584;-39
2023/03/03 02:15:36;;;;;;;55.83;28.15;;;0.20;99.90;;;-0.87;100.00;97360.28;4972134;28;20500;-39
2023/03/03 02:18:20;;;;;;;55.47;27.15;;;0.20;99.90;;;-0.68;100.00;97387.19;4972467;28;20569;-39
2023/03/03 02:21:09;;;;;;;50.47;25.58;;;0.20;99.90;;;-0.67;100.00;97382.88;4967422;28;20040;-39
2023/03/03 02:24:17;;;;;;;67.95;28.73;;;0.20;99.90;;;-0.62;100.00;97382.03;4971052;28;20066;-39
2023/03/03 02:26:45;;;;;;;51.95;26.35;;;0.20;99.90;;;-0.58;100.00;97385.53;4967127;28;20074;-39
2023/03/03 02:29:10;;;;;;;53.70;25.45;;;0.30;99.90;;;-0.60;100.00;97382.91;4968546;28;20049;-39
2023/03/03 02:31:37;;;;;;;52.60;26.48;;;0.30;99.90;;;-0.66;100.00;97377.72;4968892;28;20247;-39
2023/03/03 02:34:03;;;;;;;56.20;28.02;;;0.30;99.90;;;-0.69;100.00;97382.84;4969386;28;20034;-39
2023/03/03 02:36:36;;;;;;;53.63;25.60;;;0.30;99.90;;;-0.68;100.00;97381.13;4969260;28;20121;-39
2023/03/03 02:39:11;;;;;;;55.72;26.75;;;0.20;99.90;;;-0.76;100.00;97373.31;4965075;28;20054;-39
2023/03/03 02:41:52;;;;;;;49.33;25.00;;;0.20;99.90;;;-0.75;100.00;97380.22;4970555;28;20213;-39
2023/03/03 02:44:25;;;;;;;52.90;26.45;;;0.10;99.90;;;-0.78;100.00;97373.28;4968840;28;20039;-39
2023/03/03 02:46:53;;;;;;;56.97;27.27;;;0.10;99.90;;;-0.81;100.00;97377.59;4968872;28;20031;-38
2023/03/03 02:49:23;;;;;;;54.25;26.30;;;0.10;99.90;;;-0.80;100.00;97387.09;4985054;28;20081;-39
2023/03/03 02:51:50;;;;;;;53.42;25.92;;;0.10;99.90;;;-0.80;100.00;97390.53;4971871;28;20026;-39
2023/03/03 02:54:18;;;;;;;60.15;29.00;;;0.10;99.90;;;-0.78;100.00;97390.56;4964958;28;20057;-39
2023/03/03 02:56:44;;;;;;;59.35;29.92;;;0.20;99.90;;;-0.71;100.00;97388.91;4964731;28;20534;-39
2023/03/03 02:59:10;;;;;;;64.70;30.35;;;0.30;99.90;;;-0.64;100.00;97390.66;4967527;28;20133;-39
2023/03/03 03:01:36;;;;;;;64.45;30.48;;;0.40;99.90;;;-0.51;100.00;97394.22;4967646;28;20046;-39
2023/03/03 03:04:11;;;;;;;65.45;30.17;;;0.50;99.90;;;-0.38;100.00;97388.22;4965436;28;20276;-39
2023/03/03 03:06:37;;;;;;;66.32;31.38;;;0.60;99.90;;;-0.31;100.00;97396.91;4964226;28;20031;-39
2023/03/03 03:09:05;;;;;;;59.17;29.80;;;0.70;99.90;;;-0.17;100.00;97395.28;4972138;28;20311;-39
2023/03/03 03:11:32;;;;;;;65.72;30.65;;;0.80;99.90;;;-0.13;100.00;97393.56;4968004;28;20026;-39
2023/03/03 03:13:57;;;;;;;62.95;31.42;;;0.90;99.90;;;-0.20;100.00;97365.03;4963567;28;20038;-39
2023/03/03 03:16:23;;;;;;;61.08;31.08;;;0.90;99.90;;;-0.12;100.00;97364.22;4965873;28;20468;-39
2023/03/03 03:18:51;;;;;;;62.17;30.92;;;1.00;99.90;;;-0.15;100.00;97346.03;4968297;28;20044;-39
2023/03/03 03:21:17;;;;;;;63.88;30.52;;;1.10;99.90;;;0.14;100.00;97390.22;4966555;28;20049;-39
2023/03/03 03:23:43;;;;;;;68.50;31.73;;;1.10;99.90;;;0.15;100.00;97387.66;4969405;28;20088;-39
2023/03/03 03:26:09;;;;;;;65.50;29.80;;;1.20;99.90;;;0.21;100.00;97397.16;4970697;28;20043;-39
2023/03/03 03:28:36;;;;;;;59.13;30.30;;;1.20;99.90;;;0.13;100.00;97376.41;4964033;28;20030;-39
2023/03/03 03:31:03;;;;;;;61.45;31.42;;;1.20;99.90;;;0.26;100.00;97397.19;4967304;28;20026;-39
2023/03/03 03:33:30;;;;;;;59.92;28.20;;;1.20;99.90;;;0.27;100.00;97391.13;4964296;28;20445;-39
2023/03/03 03:35:57;;;;;;;57.67;29.45;;;1.20;99.90;;;0.23;100.00;97386.81;4966869;28;20521;-39
2023/03/03 03:38:25;;;;;;;63.72;29.25;;;1.30;99.90;;;0.30;100.00;97396.34;4962852;28;20046;-39
2023/03/03 03:40:52;;;;;;;59.17;29.80;;;1.20;99.90;;;0.23;100.00;97387.66;4966032;28;20483;-39
2023/03/03 03:43:17;;;;;;;63.00;29.92;;;1.30;99.90;;;0.29;100.00;97400.69;4969736;28;20045;-39
2023/03/03 03:45:43;;;;;;;62.10;29.58;;;1.20;99.90;;;0.21;100.00;97389.38;4959337;28;20034;-40
2023/03/03 03:48:10;;;;;;;63.47;30.25;;;1.20;99.90;;;0.26;100.00;97405.00;4971670;28;20117;-39
2023/03/03 03:50:36;;;;;;;59.25;29.60;;;1.20;99.90;;;0.04;100.00;97367.75;4972036;28;20037;-39
2023/03/03 03:53:02;;;;;;;70.88;30.70;;;1.20;99.90;;;0.04;100.00;97366.00;4968206;28;20038;-39
2023/03/03 03:55:28;;;;;;;63.65;29.48;;;1.20;99.90;;;0.21;100.00;97396.31;4973384;28;20065;-39
2023/03/03 03:57:55;;;;;;;66.88;29.67;;;1.20;99.90;;;0.17;100.00;97396.28;4964431;28;21650;-39
2023/03/03 04:00:21;;;;;;;58.17;29.17;;;1.10;99.90;;;0.17;100.00;97393.69;4965874;28;20545;-38
2023/03/03 04:02:47;;;;;;;60.67;29.13;;;1.20;99.90;;;0.22;100.00;97398.91;4962905;28;20035;-38
2023/03/03 04:05:12;;;;;;;61.92;29.08;;;1.20;99.90;;;0.24;100.00;97391.16;4971816;28;20728;-39
2023/03/03 04:07:38;;;;;;;64.55;29.73;;;1.20;99.90;;;0.24;100.00;97393.75;4964987;28;20073;-38
2023/03/03 04:10:04;;;;;;;67.45;31.70;;;1.20;99.90;;;0.32;100.00;97387.72;4965898;28;20406;-39
2023/03/03 04:12:37;;;;;;;62.92;29.65;;;1.30;99.90;;;0.35;100.00;97392.91;4963139;28;20026;-39
2023/03/03 04:15:11;;;;;;;;;;;1.30;99.90;;;0.36;100.00;97393.78;4963856;28;20506;-39
2023/03/03 04:17:37;;;;;;;57.88;28.55;;;1.30;99.90;;;0.18;100.00;97366.91;4969578;28;20181;-39
2023/03/03 04:20:04;;;;;;;60.20;28.65;;;1.40;99.90;;;0.40;100.00;97390.34;4968070;28;20030;-39
2023/03/03 04:22:34;;;;;;;59.97;29.50;;;1.30;99.90;;;0.43;100.00;97402.44;4967136;28;20042;-39
2023/03/03 04:25:03;;;;;;;60.00;28.92;;;1.40;99.90;;;0.47;100.00;97402.47;4979600;28;20026;-38
2023/03/03 04:27:31;;;;;;;62.45;28.63;;;1.40;99.90;;;0.52;100.00;97405.94;4968233;28;20030;-39
2023/03/03 04:29:57;;;;;;;57.65;29.27;;;1.40;99.90;;;0.55;100.00;97412.84;4961681;28;20898;-39
2023/03/03 04:32:23;;;;;;;59.15;30.73;;;1.50;99.90;;;0.56;100.00;97415.47;4968653;28;20289;-39
2023/03/03 04:34:48;;;;;;;57.65;28.42;;;1.50;99.90;;;0.59;100.00;97416.31;4967571;28;20473;-39
2023/03/03 04:37:14;;;;;;;59.72;30.45;;;1.50;99.90;;;0.47;100.00;97389.50;4970729;28;20038;-39
2023/03/03 04:39:40;;;;;;;61.80;30.13;;;1.60;99.90;;;0.56;100.00;97402.47;4969509;28;20393;-39
2023/03/03 04:42:05;;;;;;;61.03;29.85;;;1.60;99.90;;;0.66;100.00;97413.75;4965673;28;20148;-39
2023/03/03 04:44:31;;;;;;;64.88;29.08;;;1.60;99.90;;;0.69;100.00;97418.94;4966232;28;20351;-39
2023/03/03 04:46:57;;;;;;;57.38;29.10;;;1.60;99.90;;;0.69;100.00;97416.34;4969178;28;20261;-39
2023/03/03 04:49:22;;;;;;;58.55;28.45;;;1.60;99.90;;;0.68;100.00;97414.66;4970398;28;20322;-40
2023/03/03 04:51:48;;;;;;;60.28;29.73;;;1.60;99.90;;;0.71;100.00;97421.56;4963812;28;20031;-39
2023/03/03 04:54:14;;;;;;;58.47;29.92;;;1.60;99.90;;;0.79;100.00;97427.66;4964632;28;20034;-40
2023/03/03 04:56:39;;;;;;;60.05;29.08;;;1.60;99.90;;;0.76;100.00;97432.81;4965634;28;20596;-40
2023/03/03 04:59:05;;;;;;;61.58;29.52;;;1.70;99.90;;;0.73;100.00;97427.63;4965748;28;20034;-40
2023/03/03 05:01:31;;;;;;;62.38;30.52;;;1.70;99.90;;;0.74;100.00;97434.56;4966653;28;20125;-40
2023/03/03 05:03:56;;;;;;;58.92;29.77;;;1.70;99.90;;;0.71;100.00;97429.34;4960689;28;20042;-40
2023/03/03 05:06:23;;;;;;;63.58;29.73;;;1.70;99.90;;;0.46;100.00;97394.66;4959584;28;20093;-39
2023/03/03 05:08:49;;;;;;;56.60;28.83;;;1.70;99.90;;;0.72;100.00;97438.88;4964766;28;20026;-41
2023/03/03 05:11:14;;;;;;;58.97;27.73;;;1.60;99.90;;;0.70;100.00;97435.38;4964906;28;20453;-40
2023/03/03 05:13:40;;;;;;;59.30;28.20;;;1.60;99.90;;;0.68;100.00;97432.81;4972319;28;20675;-41
2023/03/03 05:16:06;;;;;;;56.90;29.40;;;1.60;99.90;;;0.77;100.00;97439.72;4967045;28;20096;-40
2023/03/03 05:18:32;;;;;;;60.30;28.65;;;1.60;99.90;;;0.72;100.00;97433.69;4970261;28;20040;-40
2023/03/03 05:20:57;;;;;;;59.08;28.35;;;1.70;99.90;;;0.69;100.00;97426.75;4969407;28;20092;-41
2023/03/03 05:23:24;;;;;;;64.95;29.92;;;1.70;99.90;;;0.65;100.00;97424.16;4968821;28;20038;-40
2023/03/03 05:25:50;;;;;;;55.00;28.40;;;1.60;99.90;;;0.67;100.00;97431.06;4961656;28;20026;-41
2023/03/03 05:28:17;;;;;;;55.72;28.02;;;1.60;99.90;;;0.64;100.00;97433.66;4963029;28;20449;-40
2023/03/03 05:30:42;;;;;;;53.65;28.05;;;1.60;99.90;;;0.65;100.00;97435.38;4966291;28;20566;-40
2023/03/03 05:33:13;;;;;;;60.25;29.67;;;1.60;99.90;;;0.69;100.00;97436.25;4956765;28;20042;-41
2023/03/03 05:35:39;;;;;;;53.58;27.52;;;1.60;99.90;;;0.71;100.00;97443.19;4958027;28;20686;-41
2023/03/03 05:38:04;;;;;;;59.38;28.55;;;1.60;99.90;;;0.73;100.00;97438.00;4957618;28;20074;-40
2023/03/03 05:40:30;;;;;;;58.25;28.60;;;1.70;99.90;;;0.76;100.00;97444.06;4961126;28;20038;-40
2023/03/03 05:42:57;;;;;;;56.30;27.95;;;1.70;99.90;;;0.79;100.00;97445.81;4951652;28;20038;-41
2023/03/03 05:45:23;;;;;;;56.95;26.85;;;1.70;99.90;;;0.83;100.00;97449.28;4962042;28;20034;-40
2023/03/03 05:47:50;;;;;;;51.97;26.30;;;1.70;99.90;;;0.85;100.00;97458.81;4964617;28;20399;-40
2023/03/03 05:50:17;;;;;;;55.67;27.88;;;1.70;99.90;;;0.87;100.00;97464.00;4966768;28;20600;-40
2023/03/03 05:52:43;;;;;;;56.97;27.83;;;1.80;99.90;;;0.92;100.00;97457.09;4960685;28;20042;-40
2023/03/03 05:55:10;;;;;;;56.05;28.52;;;1.80;99.90;;;0.83;100.00;97459.69;4965065;28;20042;-41
2023/03/03 05:57:35;;;;;;;57.83;28.20;;;1.80;99.90;;;0.82;100.00;97466.56;4959632;28;20038;-40
2023/03/03 06:00:04;;;;;;;54.78;27.08;;;1.70;99.90;;;0.81;100.00;97472.66;4959419;28;20500;-40
2023/03/03 06:02:31;;;;;;;55.35;26.90;;;1.80;99.90;;;0.80;100.00;97464.84;4963921;28;20594;-40
2023/03/03 06:04:56;;;;;;;54.20;26.55;;;1.70;99.90;;;0.82;100.00;97469.16;4966512;28;20029;-41
2023/03/03 06:07:22;;;;;;;54.35;26.88;;;1.70;99.90;;;0.81;100.00;97467.47;4965309;28;20038;-40
2023/03/03 06:09:48;;;;;;;50.92;25.45;;;1.80;99.90;;;0.86;100.00;97473.53;4967957;28;20030;-40
2023/03/03 06:12:13;;;;;;;54.90;25.70;;;1.80;99.90;;;0.90;100.00;97471.81;4969713;28;20613;-40
2023/03/03 06:14:39;;;;;;;53.95;27.52;;;1.80;99.90;;;0.93;100.00;97472.69;4970330;28;20035;-40
2023/03/03 06:17:05;;;;;;;59.97;26.33;;;1.80;99.90;;;0.92;100.00;97472.69;4971461;28;20467;-40
2023/03/03 06:19:31;;;;;;;54.10;26.67;;;1.80;99.90;;;0.92;100.00;97483.06;4963859;28;20054;-40
2023/03/03 06:21:56;;;;;;;54.60;26.80;;;1.80;99.90;;;0.88;100.00;97481.28;4965021;28;20112;-45
2023/03/03 06:24:24;;;;;;;52.90;27.23;;;1.80;99.90;;;0.86;100.00;97477.84;4966332;28;20043;-40
2023/03/03 06:26:50;;;;;;;53.33;25.88;;;1.80;99.90;;;0.85;100.00;97482.16;4967996;28;20081;-41
2023/03/03 06:29:16;;;;;;;47.30;25.15;;;1.80;99.90;;;0.71;100.00;97460.50;4959710;28;20038;-40
2023/03/03 06:31:42;;;;;;;57.15;26.38;;;1.80;99.90;;;0.91;100.00;97487.38;4964409;28;20375;-40
2023/03/03 06:34:08;;;;;;;50.72;24.10;;;1.80;99.90;;;0.88;100.00;97479.59;4958270;28;21694;-40
2023/03/03 06:36:34;;;;;;;50.65;25.90;;;1.90;99.90;;;0.92;100.00;97478.72;4963587;28;20497;-41
2023/03/03 06:38:59;;;;;;;50.17;26.05;;;1.90;99.90;;;0.96;100.00;97500.38;4958882;28;20534;-41
2023/03/03 06:41:25;;;;;;;53.90;27.05;;;1.90;99.90;;;1.01;100.00;97490.00;4963233;28;20027;-40
2023/03/03 06:43:51;;;;;;;58.30;27.73;;;1.90;99.90;;;1.04;100.00;97500.38;4952232;28;20047;-41
2023/03/03 06:46:17;;;;;;;53.60;25.90;;;1.90;99.90;;;1.03;100.00;97504.72;4967682;28;20537;-40
2023/03/03 06:48:43;;;;;;;49.33;26.23;;;2.00;99.90;;;1.04;100.00;97500.38;4966679;28;20077;-40
2023/03/03 06:51:29;;;;;;;51.28;26.13;;;2.00;99.90;;;1.02;100.00;97490.00;4965438;28;21070;-41
2023/03/03 06:53:57;;;;;;;48.22;24.98;;;2.00;99.90;;;1.09;100.00;97509.06;4968810;28;20034;-40
2023/03/03 06:56:26;;;;;;;47.28;24.77;;;2.00;99.90;;;1.10;100.00;97506.47;4967134;28;20318;-41
2023/03/03 06:58:58;;;;;;;47.22;23.73;;;2.10;99.90;;;1.20;100.00;97509.09;4981096;28;20030;-41
2023/03/03 07:01:24;;;;;;;45.43;23.70;;;2.10;99.90;;;1.28;100.00;97516.03;4958343;28;20215;-41
2023/03/03 07:03:50;;;;;;;51.08;24.52;;;2.10;99.90;;;1.34;100.00;97512.56;4962607;28;20542;-40
2023/03/03 07:06:23;;;;;;;44.97;23.77;;;2.20;99.90;;;1.42;100.00;97520.38;4963911;28;20034;-40
2023/03/03 07:08:51;;;;;;;45.15;22.60;;;2.30;99.90;;;1.43;100.00;97525.56;4960866;28;20080;-41
2023/03/03 07:11:20;;;;;;;53.63;24.80;;;2.30;99.90;;;1.48;100.00;97530.78;4965734;28;20046;-40
2023/03/03 07:13:53;;;;;;;45.60;22.80;;;2.40;99.90;;;1.50;100.00;97529.91;4964443;28;21093;-40
2023/03/03 07:16:23;;;;;;;;;;;2.40;99.90;;;1.56;100.00;97534.25;4963790;28;20062;-40
2023/03/03 07:18:56;;;;;;;42.50;21.08;;;2.50;99.90;;;1.62;100.00;97538.59;4966861;28;19918;-40
2023/03/03 07:21:31;;;;;;;43.47;21.05;;;2.50;99.90;;;1.69;100.00;97542.94;4965091;28;20061;-40
2023/03/03 07:23:57;;;;;;;42.72;20.45;;;2.60;99.90;;;1.75;100.00;97536.88;4974111;28;20054;-40
2023/03/03 07:26:31;;;;;;;46.20;21.38;;;2.60;99.90;;;1.82;100.00;97543.81;4990614;23;20076;-39
2023/03/03 07:29:21;;;;;;;46.10;22.48;;;2.70;99.90;;;1.84;100.00;97545.53;4985636;28;20811;-39
2023/03/03 07:31:48;;;;;;;46.50;21.52;;;2.70;99.90;;;1.89;100.00;97536.00;4996039;28;20068;-39
2023/03/03 07:34:37;;;;;;;46.83;21.15;;;2.80;99.90;;;1.97;100.00;97536.00;4977613;28;20561;-39
2023/03/03 07:37:16;;;;;;;42.13;21.90;;;2.80;99.90;;;2.10;100.00;97537.72;4992861;28;20048;-39
2023/03/03 07:39:45;;;;;;;38.83;21.70;;;2.90;99.90;;;2.23;100.00;97537.72;4978415;28;20034;-39
2023/03/03 07:42:27;;;;;;;41.38;21.17;;;3.10;99.90;;;2.36;100.00;97544.63;4997263;28;20355;-39
2023/03/03 07:44:57;;;;;;;44.38;22.50;;;3.20;99.90;;;2.46;100.00;97543.72;4989847;28;20026;-39
2023/03/03 07:47:29;;;;;;;42.28;22.00;;;3.30;99.90;;;2.61;100.00;97541.97;4984127;28;20498;-39
2023/03/03 07:50:15;;;;;;;;;;;3.40;99.90;;;2.70;100.00;97546.28;4989564;28;20504;-39
2023/03/03 07:52:55;;;;;;;44.03;21.67;;;3.50;99.90;;;2.84;100.00;97545.34;4983348;28;19959;-40
2023/03/03 07:55:38;;;;;;;38.30;20.95;;;3.60;99.90;;;2.83;100.00;97543.59;4983583;28;20028;-39
2023/03/03 07:58:11;;;;;;;37.42;19.88;;;3.70;99.90;;;2.94;100.00;97553.97;4993956;28;20040;-39
2023/03/03 08:01:38;;;;;;;41.85;21.20;;;3.80;99.90;;;3.06;100.00;97546.09;4988611;28;20061;-39
2023/03/03 08:04:17;;;;;;;40.33;20.95;;;3.90;99.90;;;3.22;100.00;97559.06;4989848;28;20501;-39
2023/03/03 08:06:58;;;;;;;42.83;20.58;;;4.00;99.90;;;3.36;100.00;97559.00;4991076;28;20041;-40
2023/03/03 08:09:25;;;;;;;40.88;22.17;;;4.10;99.90;;;3.44;100.00;97562.41;5005833;28;20038;-40
2023/03/03 08:11:55;;;;;;;41.85;21.17;;;4.20;99.90;;;3.51;99.32;97553.69;4988180;28;20048;-40
2023/03/03 08:14:29;;;;;;;40.47;21.00;;;4.30;99.90;;;3.61;97.43;97560.56;4990486;28;20055;-40
2023/03/03 08:16:56;;;;;;;40.03;20.77;;;4.40;99.90;;;3.64;94.73;97564.88;4987398;28;20137;-40
2023/03/03 08:19:23;;;;;;;35.70;20.73;;;4.40;99.90;;;3.57;92.25;97566.69;4989877;28;20040;-40
2023/03/03 08:21:49;;;;;;;38.33;20.88;;;4.50;99.90;;;3.68;92.87;97565.75;4989467;28;20132;-40
2023/03/03 08:24:14;;;;;;;42.85;21.38;;;4.50;99.90;;;3.50;94.71;97565.00;4992477;28;20417;-40
2023/03/03 08:26:40;;;;;;;43.83;20.52;;;4.40;99.90;;;3.36;92.95;97562.47;4991346;28;20072;-40
2023/03/03 08:29:06;;;;;;;38.67;20.13;;;4.30;99.90;;;3.50;92.87;97562.41;4992059;28;20061;-40
2023/03/03 08:31:31;;;;;;;37.88;19.52;;;4.20;99.90;;;3.50;93.66;97559.78;4987596;28;20122;-40
2023/03/03 08:33:57;;;;;;;34.97;19.52;;;4.30;99.90;;;3.43;90.91;97553.75;4989189;28;20466;-40
2023/03/03 08:36:23;;;;;;;32.80;18.83;;;4.30;99.90;;;3.45;90.26;97561.56;4989866;28;20029;-40
2023/03/03 08:38:49;;;;;;;34.72;18.25;;;4.30;99.90;;;3.48;88.89;97568.47;4987337;28;20107;-40
2023/03/03 08:41:15;;;;;;;33.88;17.75;;;4.30;99.90;;;3.54;88.55;97558.03;4984575;28;20064;-40
2023/03/03 08:43:40;;;;;;;29.10;16.33;;;4.40;99.90;;;3.42;85.75;97551.13;4982677;28;20060;-40
2023/03/03 08:46:09;;;;;;;29.33;16.13;;;4.30;99.90;;;3.40;84.14;97561.56;4991039;28;20503;-40
2023/03/03 08:48:34;;;;;;;34.22;16.55;;;4.20;99.90;;;3.24;83.56;97563.38;4990691;28;20030;-40
2023/03/03 08:51:00;;;;;;;30.83;15.02;;;4.20;99.90;;;3.19;85.19;97556.47;4986412;28;20053;-41
2023/03/03 08:53:26;;;;;;;31.35;17.25;;;4.10;99.90;;;3.19;86.84;97569.50;4991993;28;20413;-40
2023/03/03 08:55:52;;;;;;;30.45;16.40;;;4.10;99.90;;;3.25;88.31;97565.13;4985726;28;20258;-40
2023/03/03 08:58:20;;;;;;;34.45;18.20;;;4.10;99.90;;;3.34;88.43;97566.84;4988732;28;20548;-40
2023/03/03 09:00:46;;;;;;;32.53;16.80;;;4.20;99.90;;;3.39;89.08;97574.59;4982650;28;20037;-40
2023/03/03 09:03:12;;;;;;;31.33;17.95;;;4.20;99.90;;;3.44;89.08;97575.47;4987902;28;20042;-40
2023/03/03 09:05:39;;;;;;;33.10;17.45;;;4.30;99.90;;;3.42;88.59;97585.88;4985712;28;20057;-40
2023/03/03 09:08:07;;;;;;;36.13;18.25;;;4.30;99.90;;;3.44;89.55;97586.75;4987054;28;20033;-40
2023/03/03 09:10:34;;;;;;;33.97;18.08;;;4.20;99.90;;;3.45;89.51;97590.25;4986676;28;24701;-40
2023/03/03 09:13:11;;;;;;;33.72;18.30;;;4.30;99.90;;;3.50;88.81;97588.47;4987746;28;20033;-40
2023/03/03 09:15:37;;;;;;;38.13;18.08;;;4.30;99.90;;;3.59;88.33;97587.56;4981159;28;20532;-40
2023/03/03 09:18:30;;;;;;;35.38;18.30;;;4.40;99.90;;;3.66;88.76;97588.34;4989466;28;20057;-40
2023/03/03 09:20:58;;;;;;;;;;;4.50;99.90;;;3.75;88.21;97601.34;4989933;28;20493;-40
2023/03/03 09:23:31;;;;;;;33.03;17.73;;;4.50;99.90;;;3.89;86.62;97602.13;4991345;28;19921;-40
2023/03/03 09:26:25;;;;;;;31.27;18.42;;;4.60;99.90;;;3.85;85.82;97602.16;4985007;28;20038;-40
2023/03/03 09:29:12;;;;;;;31.55;17.52;;;4.70;99.90;;;3.86;86.01;97602.16;4988849;28;20682;-40
2023/03/03 09:31:44;;;;;;;32.55;17.48;;;4.60;99.90;;;3.90;86.91;97611.69;4979932;28;20054;-40
2023/03/03 09:34:35;;;;;;;;;;;4.60;99.90;;;4.06;87.12;97606.38;4988108;28;20302;-40
2023/03/03 09:37:22;;;;;;;36.40;17.65;;;4.70;99.90;;;4.19;84.46;97584.50;4983413;28;20020;-40
2023/03/03 09:39:51;;;;;;;32.28;17.50;;;5.00;99.90;;;4.71;81.45;97615.34;4982732;28;20294;-40
2023/03/03 09:42:44;;;;;;;31.50;17.63;;;5.30;99.90;;;5.04;78.35;97605.38;4989028;28;20523;-40
2023/03/03 09:45:21;;;;;;;;;;;5.60;99.90;;;5.04;76.44;97600.16;4989615;28;20041;-40
2023/03/03 09:48:25;;;;;;;37.35;19.40;;;5.80;99.90;;;5.23;78.45;97602.56;4978670;28;19999;-41
2023/03/03 09:51:01;;;;;;;35.70;19.30;;;6.00;99.90;;;5.39;76.62;97606.72;4976679;28;20295;-40
2023/03/03 09:53:53;;;;;;;33.90;19.35;;;6.20;99.90;;;5.49;76.31;97599.59;4986565;28;20060;-40
2023/03/03 09:56:33;;;;;;;33.65;19.00;;;6.30;99.90;;;5.54;75.28;97598.69;4988537;28;20034;-40
2023/03/03 09:59:27;;;;;;;33.40;19.17;;;6.40;99.90;;;5.66;74.53;97604.63;4984205;28;20057;-40
2023/03/03 10:02:11;;;;;;;37.45;19.27;;;6.40;99.90;;;5.83;73.96;97599.13;4987452;28;20172;-40
2023/03/03 10:05:11;;;;;;;35.30;19.58;;;6.60;99.90;;;5.93;72.53;97601.59;4984913;28;20038;-41
2023/03/03 10:08:00;;;;;;;35.38;19.52;;;6.80;99.90;;;6.08;71.23;97611.00;5003105;28;20049;-41
2023/03/03 10:11:03;;;;;;;36.00;19.00;;;6.90;99.90;;;6.29;71.12;97608.94;4987402;28;20036;-40
2023/03/03 10:13:48;;;;;;;;;;;7.20;99.90;;;6.55;69.91;97607.59;4990647;28;20041;-41
2023/03/03 10:16:39;;;;;;;35.72;19.27;;;7.30;99.90;;;6.75;67.02;97613.38;4999843;28;19925;-41
2023/03/03 10:20:04;;;;;;;28.33;17.98;;;7.50;99.90;;;6.84;64.35;97602.72;5001293;28;20422;-41
2023/03/03 10:22:51;;;;;;;30.17;18.33;;;7.50;99.90;;;7.06;64.56;97607.53;4995966;28;20037;-40
2023/03/03 10:25:41;;;;;;;35.97;19.50;;;7.70;99.90;;;7.03;64.10;97605.84;4993108;28;20026;-41
2023/03/03 10:28:46;;;;;;;32.72;17.73;;;7.80;99.90;;;7.10;63.07;97608.34;4990704;28;20053;-40
2023/03/03 10:31:48;;;;;;;35.60;19.05;;;7.80;99.90;;;6.82;64.12;97620.22;4988614;28;20033;-41